| time (UTC) | temp C | wind direction | speed KPH | gust KPH | rain 1hr cm | rain 24hr cm | rain mn cm | humidity % | barometer mb |
| 20260508023016 | 20 | 180 | 4.8 | 6.4 | 0.00 | 0.00 | 0.00 | 11 | 1013.5 |
| 20260508021517 | 20 | 158 | 4.8 | 9.7 | 0.00 | 0.00 | 0.00 | 11 | 1013.0 |
| 20260508020016 | 20 | 135 | 6.4 | 9.7 | 0.00 | 0.00 | 0.00 | 12 | 1012.8 |
| 20260508014536 | 21 | 135 | 6.4 | 6.4 | 0.00 | 0.00 | 0.00 | 11 | 1012.3 |
| 20260508013016 | 22 | 135 | 8.0 | 14.5 | 0.00 | 0.00 | 0.00 | 11 | 1012.6 |
| 20260508011516 | 22 | 135 | 9.7 | 14.5 | 0.00 | 0.00 | 0.00 | 11 | 1012.5 |
| 20260508010016 | 23 | 113 | 6.4 | 12.9 | 0.00 | 0.00 | 0.00 | 11 | 1012.8 |
| 20260508004516 | 23 | 113 | 6.4 | 12.9 | 0.00 | 0.00 | 0.00 | 10 | 1012.5 |
| 20260508003016 | 23 | 90 | 6.4 | 16.1 | 0.00 | 0.00 | 0.00 | 10 | 1012.6 |
| 20260508001556 | 23 | 135 | 6.4 | 14.5 | 0.00 | 0.00 | 0.00 | 11 | 1013.0 |
| 20260508000016 | 23 | 90 | 6.4 | 14.5 | 0.00 | 0.00 | 0.00 | 10 | 1013.4 |
| 20260507234516 | 23 | 0 | 6.4 | 16.1 | 0.00 | 0.00 | 0.00 | 11 | 1013.5 |
| 20260507233016 | 23 | 338 | 6.4 | 14.5 | 0.00 | 0.00 | 0.00 | 8 | 1013.6 |
| 20260507231516 | 23 | 45 | 4.8 | 16.1 | 0.00 | 0.00 | 0.00 | 8 | 1013.7 |
| 20260507230016 | 23 | 338 | 8.0 | 17.7 | 0.00 | 0.00 | 0.00 | 9 | 1013.9 |
| 20260507224516 | 23 | 45 | 8.0 | 20.9 | 0.00 | 0.00 | 0.00 | 9 | 1013.7 |
| 20260507223036 | 23 | 23 | 9.7 | 22.5 | 0.00 | 0.00 | 0.00 | 9 | 1013.9 |
| 20260507221516 | 22 | 0 | 11.3 | 24.1 | 0.00 | 0.00 | 0.00 | 9 | 1014.9 |
| 20260507220036 | 22 | 90 | 9.7 | 19.3 | 0.00 | 0.00 | 0.00 | 9 | 1015.1 |
| 20260507214616 | 22 | 45 | 11.3 | 24.1 | 0.00 | 0.00 | 0.00 | 10 | 1014.4 |
| 20260507213016 | 22 | 0 | 8.0 | 20.9 | 0.00 | 0.00 | 0.00 | 9 | 1014.8 |
| 20260507211516 | 21 | 293 | 11.3 | 20.9 | 0.00 | 0.00 | 0.00 | 11 | 1015.5 |
| 20260507210016 | 21 | 338 | 9.7 | 20.9 | 0.00 | 0.00 | 0.00 | 11 | 1015.8 |
| 20260507204536 | 21 | 270 | 8.0 | 19.3 | 0.00 | 0.00 | 0.00 | 13 | 1016.2 |
| 20260507203015 | 20 | 315 | 9.7 | 19.3 | 0.00 | 0.00 | 0.00 | 12 | 1016.4 |
| 20260507201516 | 20 | 315 | 8.0 | 20.9 | 0.00 | 0.00 | 0.00 | 12 | 1016.6 |
| 20260507200016 | 20 | 0 | 9.7 | 20.9 | 0.00 | 0.00 | 0.00 | 14 | 1016.8 |
| 20260507194516 | 20 | 45 | 11.3 | 22.5 | 0.00 | 0.00 | 0.00 | 16 | 1017.7 |
| 20260507193016 | 18 | 0 | 11.3 | 25.7 | 0.00 | 0.00 | 0.00 | 17 | 1017.7 |
| 20260507191518 | 18 | 0 | 11.3 | 22.5 | 0.00 | 0.00 | 0.00 | 17 | 1018.1 |
| 20260507190015 | 18 | 0 | 14.5 | 25.7 | 0.00 | 0.00 | 0.00 | 18 | 1017.9 |
| 20260507184518 | 18 | 338 | 11.3 | 22.5 | 0.00 | 0.00 | 0.00 | 19 | 1018.2 |
| 20260507183017 | 17 | 0 | 12.9 | 22.5 | 0.00 | 0.00 | 0.00 | 20 | 1018.5 |
| 20260507181537 | 17 | 338 | 12.9 | 25.7 | 0.00 | 0.00 | 0.00 | 22 | 1019.1 |
| 20260507180017 | 17 | 315 | 12.9 | 27.4 | 0.00 | 0.00 | 0.00 | 23 | 1018.9 |
| 20260507174517 | 17 | 0 | 11.3 | 22.5 | 0.00 | 0.00 | 0.00 | 24 | 1019.2 |
| 20260507173017 | 16 | 0 | 11.3 | 19.3 | 0.00 | 0.00 | 0.00 | 25 | 1019.5 |
| 20260507171517 | 15 | 315 | 11.3 | 24.1 | 0.00 | 0.00 | 0.00 | 27 | 1019.3 |
| 20260507170017 | 15 | 338 | 11.3 | 20.9 | 0.00 | 0.00 | 0.00 | 26 | 1019.0 |
| 20260507164517 | 15 | 0 | 11.3 | 22.5 | 0.00 | 0.00 | 0.00 | 32 | 1019.3 |
| 20260507163017 | 13 | 0 | 11.3 | 20.9 | 0.00 | 0.00 | 0.00 | 36 | 1019.2 |
| 20260507161617 | 13 | 0 | 14.5 | 25.7 | 0.00 | 0.00 | 0.00 | 37 | 1019.7 |
| 20260507160017 | 13 | 0 | 16.1 | 27.4 | 0.00 | 0.00 | 0.00 | 40 | 1019.6 |
| 20260507154517 | 12 | 338 | 14.5 | 24.1 | 0.00 | 0.00 | 0.00 | 42 | 1020.0 |
| 20260507153017 | 12 | 0 | 14.5 | 20.9 | 0.00 | 0.00 | 0.00 | 44 | 1020.1 |
| 20260507151517 | 10 | 338 | 11.3 | 20.9 | 0.00 | 0.00 | 0.00 | 47 | 1019.9 |
| 20260507150017 | 10 | 338 | 11.3 | 17.7 | 0.00 | 0.00 | 0.00 | 47 | 1019.7 |
| 20260507144557 | 9 | 338 | 11.3 | 17.7 | 0.00 | 0.00 | 0.00 | 46 | 1019.8 |
| 20260507143037 | 8 | 338 | 11.3 | 17.7 | 0.00 | 0.00 | 0.00 | 46 | 1020.0 |
| 20260507141517 | 8 | 315 | 4.8 | 12.9 | 0.00 | 0.00 | 0.00 | 45 | 1019.9 |
| 20260507140017 | 7 | 338 | 3.2 | 6.4 | 0.00 | 0.00 | 0.00 | 43 | 1019.9 |
| 20260507134537 | 6 | 338 | 4.8 | 8.0 | 0.00 | 0.00 | 0.00 | 42 | 1019.8 |
| 20260507133017 | 6 | 338 | 6.4 | 12.9 | 0.00 | 0.00 | 0.00 | 41 | 1019.2 |
| 20260507131517 | 6 | 0 | 9.7 | 14.5 | 0.00 | 0.00 | 0.00 | 42 | 1019.7 |
| 20260507130017 | 5 | 0 | 11.3 | 16.1 | 0.00 | 0.00 | 0.00 | 47 | 1019.2 |
| 20260507124516 | 5 | 23 | 14.5 | 20.9 | 0.00 | 0.00 | 0.00 | 51 | 1018.9 |
| 20260507123017 | 4 | 23 | 9.7 | 16.1 | 0.00 | 0.00 | 0.00 | 50 | 1018.5 |
| 20260507121517 | 5 | 0 | 6.4 | 9.7 | 0.00 | 0.00 | 0.00 | 46 | 1019.5 |
| 20260507120016 | 6 | 90 | 4.8 | 9.7 | 0.00 | 0.00 | 0.00 | 46 | 1020.0 |
| 20260507114517 | 6 | 113 | 4.8 | 9.7 | 0.00 | 0.00 | 0.00 | 49 | 1019.7 |
| 20260507113016 | 6 | 23 | 6.4 | 8.0 | 0.00 | 0.00 | 0.00 | 45 | 1019.6 |
| 20260507111517 | 7 | 23 | 4.8 | 8.0 | 0.00 | 0.00 | 0.00 | 43 | 1019.7 |
| 20260507110017 | 6 | 68 | 3.2 | 6.4 | 0.00 | 0.00 | 0.00 | 54 | 1019.8 |
| 20260507104517 | 5 | 68 | 3.2 | 8.0 | 0.00 | 0.00 | 0.00 | 55 | 1019.7 |
| 20260507103016 | 5 | 23 | 4.8 | 8.0 | 0.00 | 0.00 | 0.00 | 49 | 1019.7 |
| 20260507101517 | 7 | 0 | 6.4 | 9.7 | 0.00 | 0.00 | 0.00 | 44 | 1019.9 |
| 20260507100037 | 8 | 0 | 6.4 | 14.5 | 0.00 | 0.00 | 0.00 | 39 | 1020.5 |
| 20260507094516 | 6 | 338 | 4.8 | 8.0 | 0.00 | 0.00 | 0.00 | 47 | 1019.4 |
| 20260507093016 | 6 | 338 | 3.2 | 6.4 | 0.00 | 0.00 | 0.00 | 50 | 1019.2 |
| 20260507091517 | 7 | 338 | 6.4 | 8.0 | 0.00 | 0.00 | 0.00 | 50 | 1019.4 |
| 20260507090017 | 7 | 338 | 6.4 | 11.3 | 0.00 | 0.00 | 0.00 | 51 | 1019.2 |
| 20260507084557 | 7 | 338 | 6.4 | 8.0 | 0.00 | 0.00 | 0.00 | 52 | 1018.8 |
| 20260507083036 | 8 | 338 | 4.8 | 6.4 | 0.00 | 0.00 | 0.00 | 51 | 1019.1 |
| 20260507081516 | 8 | 338 | 4.8 | 6.4 | 0.00 | 0.00 | 0.00 | 49 | 1019.1 |
| 20260507080016 | 9 | 338 | 3.2 | 4.8 | 0.00 | 0.00 | 0.00 | 49 | 1019.5 |
| 20260507074536 | 10 | 338 | 6.4 | 8.0 | 0.00 | 0.00 | 0.00 | 47 | 1019.1 |
| 20260507073016 | 11 | 338 | 3.2 | 6.4 | 0.00 | 0.00 | 0.00 | 47 | 1019.4 |
| 20260507071536 | 10 | 338 | 3.2 | 6.4 | 0.00 | 0.00 | 0.00 | 48 | 1019.4 |
| 20260507070036 | 11 | 338 | 1.6 | 6.4 | 0.00 | 0.00 | 0.00 | 47 | 1019.3 |
| 20260507064516 | 11 | 338 | 4.8 | 8.0 | 0.00 | 0.00 | 0.00 | 46 | 1019.2 |
| 20260507063017 | 11 | 338 | 6.4 | 11.3 | 0.00 | 0.00 | 0.00 | 45 | 1019.0 |
| 20260507061516 | 12 | 0 | 8.0 | 12.9 | 0.00 | 0.00 | 0.00 | 43 | 1018.9 |
| 20260507060016 | 12 | 23 | 8.0 | 9.7 | 0.00 | 0.00 | 0.00 | 43 | 1018.8 |
| 20260507054516 | 13 | 90 | 4.8 | 6.4 | 0.00 | 0.00 | 0.00 | 44 | 1018.4 |
| 20260507053016 | 12 | 90 | 6.4 | 11.3 | 0.00 | 0.00 | 0.00 | 44 | 1018.2 |
| 20260507051516 | 12 | 23 | 6.4 | 11.3 | 0.00 | 0.00 | 0.00 | 44 | 1018.1 |
| 20260507050016 | 12 | 23 | 4.8 | 8.0 | 0.00 | 0.00 | 0.00 | 46 | 1017.6 |
| 20260507044516 | 12 | 23 | 6.4 | 9.7 | 0.00 | 0.00 | 0.00 | 45 | 1017.3 |
| 20260507043036 | 12 | 23 | 8.0 | 9.7 | 0.00 | 0.00 | 0.00 | 44 | 1017.0 |
| 20260507041516 | 12 | 23 | 9.7 | 14.5 | 0.00 | 0.00 | 0.00 | 43 | 1016.4 |
| 20260507040016 | 13 | 23 | 12.9 | 16.1 | 0.00 | 0.00 | 0.00 | 42 | 1016.5 |
| 20260507034516 | 13 | 23 | 12.9 | 19.3 | 0.00 | 0.00 | 0.00 | 41 | 1016.0 |
| 20260507033016 | 14 | 23 | 16.1 | 22.5 | 0.00 | 0.00 | 0.00 | 39 | 1015.8 |
| 20260507031516 | 15 | 45 | 14.5 | 24.1 | 0.00 | 0.00 | 0.00 | 38 | 1015.5 |
| 20260507030036 | 15 | 45 | 12.9 | 17.7 | 0.00 | 0.00 | 0.00 | 37 | 1015.4 |
| 20260507024516 | 15 | 23 | 16.1 | 22.5 | 0.00 | 0.00 | 0.00 | 36 | 1015.2 |